Terminal Aerodrome Forecast
Issued by NWS Lake Charles, LA

Home | Current Version | Previous Version | Text Only | Print | Product List | Glossary On
Versions: 1 2 3 4 5 6 7 8 9 10 11 12 13 14 15
000
FTUS44 KLCH 261617 AAB
TAFARA
TAF AMD
KARA 261617Z 2616/2712 20014G21KT P6SM FEW030 SCT035
      TEMPO 2616/2620 BKN035
     FM270100 18012KT P6SM BKN025
     FM270700 18009KT P6SM BKN015=

USA.gov is the U.S. government's official web portal to all federal, state and local government web resources and services.